Time;durP1;ratioP1;P1;durP2;ratioP2;P2;SDS_P1;SDS_P2;PMS_P1;PMS_P2;Temp;Humidity;BMP_temperature;BMP_pressure;BME280_temperature;BME280_humidity;BME280_pressure;Samples;Min_cycle;Max_cycle;Signal;HPM_P1;HPM_P2
2022/08/12 00:44:09;;;;;;;3.23;2.17;;;;;;;18.19;67.86;102275.72;5005153;28;20221;-79
2022/08/12 00:46:46;;;;;;;3.00;1.87;;;;;;;18.19;67.61;102280.91;5012178;28;20198;-79
2022/08/12 00:49:12;;;;;;;2.57;2.07;;;;;;;18.16;67.79;102281.75;5017230;28;20194;-80
2022/08/12 00:54:23;;;;;;;3.00;2.43;;;;;;;18.03;67.86;102274.69;5014863;28;20699;-79
2022/08/12 00:56:49;;;;;;;3.37;2.20;;;;;;;17.89;68.25;102277.94;5005903;28;20595;-80
2022/08/12 00:59:16;;;;;;;5.97;2.60;;;;;;;17.92;68.37;102275.41;5019659;28;20206;-81
2022/08/12 01:01:45;;;;;;;3.37;2.30;;;;;;;17.97;68.44;102279.75;5023256;28;20595;-80
2022/08/12 01:12:31;;;;;;;3.43;2.10;;;;;;;17.73;69.01;102281.19;5018826;28;20195;-80
2022/08/12 01:14:56;;;;;;;2.40;2.07;;;;;;;17.65;69.16;102282.81;5021932;28;20218;-80
2022/08/12 01:17:23;;;;;;;4.43;2.77;;;;;;;17.65;69.45;102285.41;5012446;28;20190;-80
2022/08/12 01:19:54;;;;;;;2.47;2.00;;;;;;;17.47;70.50;102283.44;5045041;23;20618;-80
2022/08/12 01:22:20;;;;;;;5.13;2.20;;;;;;;17.55;70.21;102283.53;4975830;28;20560;-80
2022/08/12 01:24:48;;;;;;;4.73;2.30;;;;;;;17.55;69.87;102289.56;4998767;28;20207;-80
2022/08/12 01:27:15;;;;;;;2.23;2.00;;;;;;;17.39;71.02;102278.94;4994798;28;20649;-82
2022/08/12 01:29:47;;;;;;;3.97;2.60;;;;;;;17.45;70.19;102276.50;5011599;28;20742;-81
2022/08/12 01:32:14;;;;;;;3.93;2.27;;;;;;;17.36;70.76;102268.56;4980319;28;20195;-80
2022/08/12 01:34:45;;;;;;;3.07;2.33;;;;;;;17.35;70.98;102270.25;4995449;28;20199;-80
2022/08/12 01:37:12;;;;;;;5.10;2.27;;;;;;;17.27;71.09;102266.66;4979199;28;20266;-81
2022/08/12 01:39:51;;;;;;;3.83;2.33;;;;;;;17.23;70.48;102271.81;4974838;28;20216;-82
2022/08/12 01:42:20;;;;;;;3.27;2.33;;;;;;;17.20;71.36;102276.91;4966173;28;20192;-81
2022/08/12 01:44:47;;;;;;;5.20;2.40;;;;;;;17.22;71.45;102267.47;4981163;28;20645;-79
2022/08/12 01:47:29;;;;;;;4.33;2.30;;;;;;;17.10;72.33;102269.84;4971151;28;20187;-80
2022/08/12 01:50:35;;;;;;;2.23;2.03;;;;;;;17.16;71.49;102267.34;4990815;28;20634;-81
2022/08/12 01:53:14;;;;;;;3.70;2.50;;;;;;;17.08;72.33;102259.47;4966126;28;20196;-81
2022/08/12 01:55:45;;;;;;;4.90;2.80;;;;;;;17.03;72.06;102255.06;4960026;28;20408;-80
2022/08/12 01:58:25;;;;;;;3.53;2.43;;;;;;;17.02;72.64;102263.69;4988805;28;20192;-78
2022/08/12 02:01:12;;;;;;;5.00;2.60;;;;;;;16.98;72.13;102261.88;4980752;28;20245;-81
2022/08/12 02:12:46;;;;;;;3.30;2.57;;;;;;;16.70;73.13;102272.63;4971941;28;20527;-81
2022/08/12 02:15:36;;;;;;;5.30;2.40;;;;;;;16.64;73.51;102267.34;4989220;28;20708;-80
2022/08/12 02:18:50;;;;;;;3.63;2.50;;;;;;;16.62;73.52;102275.09;4981659;28;20200;-81
2022/08/12 02:21:19;;;;;;;2.83;2.30;;;;;;;16.52;73.45;102273.19;4935798;28;20238;-82
2022/08/12 02:23:46;;;;;;;2.60;2.40;;;;;;;16.47;74.01;102268.75;4980612;28;20302;-81
2022/08/12 02:26:15;;;;;;;5.00;2.20;;;;;;;16.43;74.49;102265.25;4977665;28;20199;-80
2022/08/12 02:28:40;;;;;;;3.77;2.70;;;;;;;16.45;74.25;102257.53;4966097;28;20292;-81
2022/08/12 02:31:07;;;;;;;3.30;2.40;;;;;;;16.38;74.88;102261.69;4979129;28;20247;-81
2022/08/12 02:33:34;;;;;;;3.10;2.50;;;;;;;16.40;75.10;102260.00;4970151;28;20192;-81
2022/08/12 02:36:03;;;;;;;3.27;2.60;;;;;;;16.30;75.24;102260.66;4959741;28;20192;-81
2022/08/12 02:38:30;;;;;;;3.80;2.50;;;;;;;16.38;74.77;102263.38;4959234;28;20188;-81
2022/08/12 02:40:58;;;;;;;4.20;2.57;;;;;;;16.35;74.86;102259.03;4976596;28;20239;-80
2022/08/12 02:43:39;;;;;;;4.07;2.73;;;;;;;16.30;74.70;102260.66;4994077;28;20199;-82
2022/08/12 02:46:08;;;;;;;5.33;2.70;;;;;;;16.26;74.80;102264.03;4978454;28;20288;-80
2022/08/12 02:48:54;;;;;;;3.07;2.40;;;;;;;16.22;74.20;102261.38;4976143;28;20548;-80
2022/08/12 02:51:24;;;;;;;4.00;2.50;;;;;;;16.16;74.83;102261.25;4977254;28;20236;-81
2022/08/12 02:53:50;;;;;;;3.23;2.80;;;;;;;16.18;75.39;102256.97;4976399;28;20246;-78
2022/08/12 02:56:17;;;;;;;4.63;2.97;;;;;;;16.11;75.70;102255.13;4964780;28;20822;-80
2022/08/12 02:58:45;;;;;;;3.20;2.60;;;;;;;16.06;75.75;102251.56;4971892;28;20188;-81
2022/08/12 03:01:12;;;;;;;5.63;2.83;;;;;;;16.03;75.86;102256.69;4986474;28;20223;-82
2022/08/12 03:03:39;;;;;;;3.03;2.80;;;;;;;15.97;76.43;102252.25;4967750;28;20216;-82
2022/08/12 03:06:17;;;;;;;4.23;2.73;;;;;;;15.93;76.54;102254.75;4963760;28;20187;-82
2022/08/12 03:08:45;;;;;;;3.40;2.43;;;;;;;15.96;76.65;102249.63;4977735;28;20556;-81
2022/08/12 03:11:20;;;;;;;4.73;2.50;;;;;;;15.90;77.20;102254.69;4977011;28;20384;-79
2022/08/12 03:13:59;;;;;;;3.93;2.67;;;;;;;15.86;77.36;102252.88;4966817;28;20183;-79
2022/08/12 03:16:29;;;;;;;4.00;2.93;;;;;;;15.89;77.22;102247.78;4964244;28;20184;-81
2022/08/12 03:18:55;;;;;;;3.30;2.50;;;;;;;15.84;77.17;102239.91;4977538;28;20536;-83
2022/08/12 03:21:23;;;;;;;3.40;2.50;;;;;;;15.76;76.77;102243.19;4965694;28;20251;-79
2022/08/12 03:23:52;;;;;;;5.33;3.07;;;;;;;15.77;76.47;102244.94;4972311;28;20908;-78
2022/08/12 03:26:24;;;;;;;4.63;3.37;;;;;;;15.77;76.73;102240.66;4962019;28;20202;-84
2022/08/12 03:28:56;;;;;;;3.67;3.23;;;;;;;15.78;76.81;102239.81;4968297;28;20184;-79
2022/08/12 03:31:28;;;;;;;5.10;3.10;;;;;;;15.77;76.13;102240.66;4958438;28;20678;-80
2022/08/12 03:34:11;;;;;;;5.97;3.30;;;;;;;15.72;76.92;102239.69;4974537;28;20193;-80
2022/08/12 03:36:39;;;;;;;5.13;3.57;;;;;;;15.63;77.24;102234.31;4958360;28;20508;-80
2022/08/12 03:42:00;;;;;;;5.50;3.23;;;;;;;15.49;77.87;102228.00;4976821;28;20274;-79
2022/08/12 04:01:56;;;;;;;4.77;2.67;;;;;;;15.36;78.25;102241.47;4969766;28;20188;-82
2022/08/12 04:04:33;;;;;;;5.00;2.63;;;;;;;15.31;79.34;102239.56;4962545;28;20249;-81
2022/08/12 04:07:02;;;;;;;4.10;2.40;;;;;;;15.33;79.14;102243.94;4963568;28;20588;-79
2022/08/12 04:09:28;;;;;;;4.00;3.03;;;;;;;15.33;79.72;102245.66;4968531;28;20207;-81
2022/08/12 04:14:39;;;;;;;4.93;2.57;;;;;;;15.25;80.16;102252.34;4990233;28;20184;-81
2022/08/12 04:17:07;;;;;;;4.93;3.17;;;;;;;15.23;80.50;102239.41;4993368;28;20203;-79
2022/08/12 04:19:33;;;;;;;7.07;3.70;;;;;;;15.21;80.34;102241.09;4996087;28;20215;-79
2022/08/12 04:22:00;;;;;;;6.60;3.63;;;;;;;15.27;79.82;102245.50;4976501;28;20173;-80
2022/08/12 04:24:26;;;;;;;10.90;3.40;;;;;;;15.26;78.85;102243.75;4957646;28;20816;-81
2022/08/12 04:26:52;;;;;;;4.27;3.20;;;;;;;15.25;79.46;102242.91;4942172;28;20698;-80
2022/08/12 04:29:21;;;;;;;3.90;2.97;;;;;;;15.29;79.61;102243.84;4975624;28;20175;-79
2022/08/12 04:31:48;;;;;;;6.67;3.53;;;;;;;15.27;78.74;102240.34;4957995;28;20625;-80
2022/08/12 04:34:14;;;;;;;3.90;3.33;;;;;;;15.27;78.98;102248.97;4974722;28;20192;-79
2022/08/12 04:36:41;;;;;;;4.40;3.53;;;;;;;15.29;79.23;102241.25;4940915;28;20188;-81
2022/08/12 04:39:09;;;;;;;5.00;3.30;;;;;;;15.31;78.95;102237.00;4940300;28;20187;-79
2022/08/12 04:41:39;;;;;;;3.20;2.90;;;;;;;15.37;79.49;102239.78;4957751;28;20184;-79
2022/08/12 04:44:06;;;;;;;3.23;2.80;;;;;;;15.49;80.71;102243.50;4956810;28;20204;-81
2022/08/12 04:46:32;;;;;;;3.63;2.77;;;;;;;15.51;80.22;102240.94;4973615;28;20192;-80
2022/08/12 04:48:59;;;;;;;4.17;3.40;;;;;;;15.61;79.81;102248.03;4957272;28;20192;-80
2022/08/12 04:51:25;;;;;;;7.03;3.33;;;;;;;15.59;80.53;102242.84;4974485;28;20216;-80
2022/08/12 04:53:51;;;;;;;9.20;3.70;;;;;;;15.67;80.21;102235.25;4957993;28;20216;-81
2022/08/12 04:56:17;;;;;;;4.17;3.00;;;;;;;15.70;80.20;102248.25;4960921;28;20281;-79
2022/08/12 04:58:44;;;;;;;4.30;3.00;;;;;;;15.78;80.20;102242.38;4960434;28;20295;-82
2022/08/12 05:01:11;;;;;;;3.93;3.37;;;;;;;15.81;80.34;102242.47;4960362;28;20205;-80
2022/08/12 05:03:39;;;;;;;3.77;2.87;;;;;;;15.91;80.26;102244.38;4976675;28;20733;-80
2022/08/12 05:06:06;;;;;;;4.40;3.63;;;;;;;16.04;79.71;102238.63;4973789;28;20327;-80
2022/08/12 05:08:33;;;;;;;8.07;3.57;;;;;;;16.14;80.24;102234.50;4955772;28;20199;-78
2022/08/12 05:10:58;;;;;;;3.70;3.17;;;;;;;16.23;79.61;102232.97;4956090;28;20274;-81
2022/08/12 05:13:33;;;;;;;4.57;3.50;;;;;;;16.29;81.19;102238.25;4973142;28;20221;-80
2022/08/12 05:15:59;;;;;;;4.23;3.33;;;;;;;16.41;79.84;102241.09;4973278;28;20266;-78
2022/08/12 05:18:26;;;;;;;5.77;3.53;;;;;;;16.56;78.80;102243.06;4942908;28;20763;-78
2022/08/12 05:20:52;;;;;;;6.67;4.13;;;;;;;16.70;77.85;102244.16;4960830;28;20223;-82
2022/08/12 05:23:20;;;;;;;5.87;4.40;;;;;;;16.86;77.49;102244.44;4940008;28;20270;-78
2022/08/12 05:25:55;;;;;;;6.10;3.53;;;;;;;17.03;76.58;102245.59;4960861;28;20188;-82
2022/08/12 05:28:21;;;;;;;5.07;3.50;;;;;;;17.23;76.46;102257.13;4977379;28;20548;-78
2022/08/12 05:30:47;;;;;;;6.87;3.97;;;;;;;17.41;77.07;102253.97;4977356;28;20208;-81
2022/08/12 05:33:14;;;;;;;5.80;3.70;;;;;;;17.59;76.69;102254.25;4943795;28;20551;-79
2022/08/12 05:35:42;;;;;;;4.83;3.30;;;;;;;17.70;77.53;102244.88;4962877;28;20256;-83
2022/08/12 05:40:54;;;;;;;8.63;4.00;;;;;;;18.02;75.63;102241.84;4981837;28;20226;-79
2022/08/12 05:43:20;;;;;;;6.33;3.60;;;;;;;18.18;74.37;102250.63;4963338;28;20279;-80
2022/08/12 05:45:46;;;;;;;3.80;3.27;;;;;;;18.34;74.30;102256.03;4998877;28;20195;-79
2022/08/12 05:48:12;;;;;;;4.60;3.00;;;;;;;18.50;73.61;102246.69;4982594;28;20583;-81
2022/08/12 05:50:38;;;;;;;4.30;3.63;;;;;;;18.62;72.18;102252.00;4976623;28;20265;-78
2022/08/12 05:53:05;;;;;;;6.80;3.20;;;;;;;18.85;71.96;102253.94;4977699;28;20679;-79
2022/08/12 05:55:31;;;;;;;8.63;3.50;;;;;;;18.98;71.37;102253.16;4964548;28;20207;-79
2022/08/12 05:57:56;;;;;;;6.30;3.50;;;;;;;19.08;70.06;102251.50;4964545;28;20255;-78
2022/08/12 06:00:27;;;;;;;10.03;3.17;;;;;;;19.24;69.97;102251.66;4977300;28;20318;-82
2022/08/12 06:03:04;;;;;;;5.17;3.13;;;;;;;19.40;69.37;102244.84;4992449;28;20335;-79
2022/08/12 06:05:35;;;;;;;4.67;2.97;;;;;;;19.58;69.26;102247.53;4976865;28;20219;-80
2022/08/12 06:08:07;;;;;;;4.77;3.40;;;;;;;19.70;67.87;102245.88;4974931;28;20188;-79
2022/08/12 06:10:34;;;;;;;10.23;3.67;;;;;;;19.91;68.07;102255.50;4991653;28;20267;-81
2022/08/12 06:13:01;;;;;;;6.13;3.50;;;;;;;20.06;67.02;102256.44;4991887;28;20195;-80
2022/08/12 06:15:27;;;;;;;4.83;3.13;;;;;;;20.21;66.61;102258.22;4958146;28;20191;-80
2022/08/12 06:17:54;;;;;;;5.47;3.20;;;;;;;20.33;66.40;102266.94;4990517;28;20523;-79
2022/08/12 06:20:19;;;;;;;6.40;3.07;;;;;;;20.42;65.58;102258.28;4992006;28;20224;-80
2022/08/12 06:22:49;;;;;;;5.63;2.93;;;;;;;20.58;64.83;102255.69;4991332;28;20193;-82
2022/08/12 06:25:17;;;;;;;4.30;2.70;;;;;;;20.59;64.11;102254.81;4960052;28;20217;-81
2022/08/12 06:27:43;;;;;;;5.27;2.90;;;;;;;20.76;63.52;102265.25;4975293;28;20294;-78
2022/08/12 06:30:09;;;;;;;5.33;3.00;;;;;;;20.91;63.48;102252.28;4990297;28;20724;-81
2022/08/12 06:32:36;;;;;;;2.90;2.43;;;;;;;21.14;62.12;102256.59;4974467;28;20229;-80
2022/08/12 06:35:03;;;;;;;5.33;3.03;;;;;;;21.36;61.74;102247.88;4964947;28;21010;-81
2022/08/12 06:37:28;;;;;;;4.53;3.20;;;;;;;21.53;61.47;102251.31;4947499;28;20246;-80
2022/08/12 06:39:54;;;;;;;3.63;2.90;;;;;;;21.75;60.76;102241.72;4971276;28;20204;-80
2022/08/12 06:45:05;;;;;;;4.10;2.87;;;;;;;21.97;59.32;102251.19;4981188;28;20235;-79
2022/08/12 06:47:35;;;;;;;7.10;2.90;;;;;;;21.83;59.04;102242.56;4983910;28;20263;-81
2022/08/12 06:50:02;;;;;;;3.60;3.30;;;;;;;21.87;58.69;102246.88;5002372;28;20354;-80
2022/08/12 06:52:30;;;;;;;4.47;2.80;;;;;;;22.20;58.56;102251.94;4986466;28;20179;-82
2022/08/12 06:54:57;;;;;;;3.80;2.80;;;;;;;22.39;57.59;102248.34;4985059;28;20191;-79
2022/08/12 06:57:26;;;;;;;3.77;2.80;;;;;;;22.49;57.82;102239.59;4999090;28;20195;-78
2022/08/12 06:59:53;;;;;;;3.47;2.90;;;;;;;22.34;56.84;102242.28;4969150;28;20238;-79
2022/08/12 07:02:21;;;;;;;5.67;3.17;;;;;;;22.62;56.98;102246.47;4976617;28;20187;-83
2022/08/12 07:04:51;;;;;;;6.00;2.87;;;;;;;22.90;56.04;102245.38;4969696;28;20214;-80
2022/08/12 07:07:17;;;;;;;7.40;2.90;;;;;;;22.99;55.63;102242.69;4994628;28;20202;-80
2022/08/12 07:09:43;;;;;;;4.40;3.13;;;;;;;23.11;54.97;102244.31;5001869;28;20207;-79
2022/08/12 07:12:18;;;;;;;4.60;2.97;;;;;;;23.30;55.11;102244.13;4986613;28;20191;-80
2022/08/12 07:14:46;;;;;;;3.77;2.83;;;;;;;23.49;54.27;102243.06;5021228;28;20651;-81
2022/08/12 07:17:13;;;;;;;6.07;3.03;;;;;;;23.69;53.75;102238.47;4999740;28;20198;-79
2022/08/12 07:19:41;;;;;;;4.30;2.57;;;;;;;23.86;53.84;102236.53;5020309;28;20211;-79
2022/08/12 07:22:08;;;;;;;3.90;2.57;;;;;;;24.11;52.58;102234.44;4985764;28;20266;-80
2022/08/12 07:24:33;;;;;;;5.37;2.67;;;;;;;24.14;52.06;102232.69;5001898;28;20954;-80
2022/08/12 07:27:00;;;;;;;4.10;2.80;;;;;;;24.29;51.50;102232.47;5020394;28;20203;-79
2022/08/12 07:29:27;;;;;;;5.23;2.77;;;;;;;24.39;51.43;102227.94;5020394;28;20203;-81
2022/08/12 07:31:53;;;;;;;6.17;2.97;;;;;;;24.62;51.07;102239.81;4999438;28;20258;-79
2022/08/12 07:34:18;;;;;;;4.87;2.63;;;;;;;24.69;49.85;102238.84;4972061;28;20219;-81
2022/08/12 07:36:46;;;;;;;3.70;2.77;;;;;;;24.69;50.22;102233.63;4983793;28;20724;-80
2022/08/12 07:39:12;;;;;;;3.03;2.33;;;;;;;24.90;48.95;102238.47;4983912;28;20184;-82
2022/08/12 07:41:38;;;;;;;6.43;3.27;;;;;;;24.86;49.67;102243.81;4983834;28;20198;-81
2022/08/12 07:44:07;;;;;;;5.03;2.70;;;;;;;24.98;49.43;102239.22;4983968;28;20574;-81
2022/08/12 07:46:39;;;;;;;3.47;2.80;;;;;;;25.16;49.38;102233.66;4967332;28;20180;-82
2022/08/12 07:49:08;;;;;;;4.80;3.05;;;;;;;25.32;48.11;102236.91;5000428;28;20255;-81
2022/08/12 07:51:34;;;;;;;4.63;3.07;;;;;;;25.62;47.19;102236.28;4983119;28;20255;-81
2022/08/12 07:54:01;;;;;;;7.38;3.05;;;;;;;25.85;46.92;102231.44;5018485;28;20222;-81
2022/08/12 07:56:27;;;;;;;5.63;2.60;;;;;;;25.84;45.97;102227.06;5019219;28;20179;-81
2022/08/12 07:58:53;;;;;;;4.03;2.80;;;;;;;26.02;45.90;102224.94;4990968;28;20304;-79
2022/08/12 08:01:20;;;;;;;4.45;2.67;;;;;;;25.75;46.29;102232.53;5001398;28;20207;-82
2022/08/12 08:06:41;;;;;;;5.80;2.70;;;;;;;26.30;46.05;102230.44;5010596;28;20191;-79
2022/08/12 08:09:12;;;;;;;6.20;3.00;;;;;;;26.01;46.38;102235.50;5002174;28;20191;-79
2022/08/12 08:14:27;;;;;;;3.60;2.80;;;;;;;26.46;46.29;102237.06;5001370;28;20179;-79
2022/08/12 08:16:52;;;;;;;5.75;2.97;;;;;;;27.02;44.87;102232.16;4984597;28;20197;-81
2022/08/12 08:19:22;;;;;;;5.05;2.70;;;;;;;27.34;44.49;102234.84;5003433;28;20191;-81
2022/08/12 08:21:49;;;;;;;5.03;2.53;;;;;;;27.59;44.04;102235.88;4978381;28;20767;-81
2022/08/12 08:24:15;;;;;;;3.72;2.85;;;;;;;27.69;43.76;102244.38;4968215;28;20219;-82
2022/08/12 08:26:52;;;;;;;4.40;2.80;;;;;;;27.93;43.03;102241.94;4997261;28;20727;-81
2022/08/12 08:29:23;;;;;;;6.57;3.05;;;;;;;28.17;41.70;102241.19;4983793;28;20191;-81
2022/08/12 08:31:53;;;;;;;4.13;2.47;;;;;;;28.36;41.91;102238.84;5001658;28;20195;-82
2022/08/12 08:34:20;;;;;;;5.80;2.78;;;;;;;28.19;41.76;102230.59;4984237;28;20176;-81
2022/08/12 08:36:46;;;;;;;6.75;3.10;;;;;;;28.06;41.50;102240.66;5000936;28;20176;-83
2022/08/12 08:39:15;;;;;;;6.75;2.85;;;;;;;28.17;41.18;102242.94;4966226;28;20629;-80
2022/08/12 08:44:25;;;;;;;5.30;2.70;;;;;;;28.66;39.63;102230.84;4984193;28;20365;-81
2022/08/12 08:46:52;;;;;;;5.82;2.90;;;;;;;28.76;40.69;102234.91;4984810;28;20232;-83
2022/08/12 08:49:17;;;;;;;5.78;2.95;;;;;;;29.12;39.98;102227.53;4984120;28;20191;-81
2022/08/12 08:51:44;;;;;;;4.10;2.97;;;;;;;29.29;39.05;102231.28;4979880;28;20196;-83
2022/08/12 08:54:12;;;;;;;4.40;2.80;;;;;;;29.26;38.45;102228.78;4990981;28;20194;-83
2022/08/12 08:56:48;;;;;;;6.18;2.85;;;;;;;29.16;39.22;102234.44;4991610;28;20194;-81
2022/08/12 08:59:15;;;;;;;3.70;2.53;;;;;;;29.46;38.96;102234.19;5000459;28;20254;-82
2022/08/12 09:01:41;;;;;;;5.55;2.63;;;;;;;29.40;37.37;102223.84;5025861;28;20179;-83
2022/08/12 09:04:09;;;;;;;4.22;2.65;;;;;;;29.76;37.02;102221.66;4992334;28;20215;-82
2022/08/12 09:06:35;;;;;;;4.40;2.45;;;;;;;29.91;36.95;102221.06;5005014;28;20191;-83
2022/08/12 09:09:03;;;;;;;6.53;2.63;;;;;;;30.30;36.69;102221.31;5007161;28;20188;-82
2022/08/12 09:14:13;;;;;;;4.75;2.70;;;;;;;30.06;35.13;102223.09;4989573;28;20192;-82
2022/08/12 09:16:39;;;;;;;3.45;2.17;;;;;;;30.57;35.23;102220.22;5005771;28;20179;-82
2022/08/12 09:19:09;;;;;;;4.72;2.58;;;;;;;30.81;35.06;102219.22;5007834;28;20645;-81
2022/08/12 09:21:35;;;;;;;6.32;2.40;;;;;;;31.00;35.46;102212.19;4991461;28;20215;-79
2022/08/12 09:24:01;;;;;;;4.60;2.30;;;;;;;31.09;32.79;102210.03;4972620;28;20350;-82
2022/08/12 09:26:27;;;;;;;6.28;2.55;;;;;;;30.91;33.13;102209.94;4972707;28;20298;-82
2022/08/12 09:28:54;;;;;;;3.72;2.40;;;;;;;31.42;34.09;102210.34;5006632;28;20179;-82
2022/08/12 09:31:23;;;;;;;4.28;2.33;;;;;;;31.66;33.28;102206.56;4971001;28;20316;-80
2022/08/12 09:33:49;;;;;;;2.78;2.25;;;;;;;31.70;32.91;102203.72;5005102;28;20234;-82
2022/08/12 09:36:18;;;;;;;4.40;2.63;;;;;;;31.78;32.60;102208.69;4986622;28;20290;-80
2022/08/12 09:38:44;;;;;;;3.28;2.25;;;;;;;31.96;30.30;102194.56;4971232;28;20215;-79
2022/08/12 09:41:10;;;;;;;5.25;2.67;;;;;;;32.06;31.81;102191.41;4986823;28;20627;-80
2022/08/12 09:46:21;;;;;;;4.72;2.30;;;;;;;32.50;30.81;102189.25;4986154;28;20222;-83
2022/08/12 09:48:46;;;;;;;3.30;2.67;;;;;;;32.53;30.13;102187.31;4987548;28;20192;-81
2022/08/12 09:51:12;;;;;;;2.88;2.30;;;;;;;32.76;29.70;102188.78;5004991;28;20210;-83
2022/08/12 09:53:39;;;;;;;4.00;2.08;;;;;;;32.39;29.00;102191.56;4989181;28;20255;-83
2022/08/12 09:56:07;;;;;;;6.43;2.70;;;;;;;32.51;28.81;102186.50;4997484;28;20223;-82
2022/08/12 09:58:33;;;;;;;7.72;2.35;;;;;;;32.22;29.63;102183.56;4976757;28;20225;-82
2022/08/12 10:01:01;;;;;;;4.13;2.45;;;;;;;32.48;28.32;102184.03;5020381;28;20203;-85
2022/08/12 10:03:30;;;;;;;2.38;2.17;;;;;;;32.35;28.18;102180.25;4973903;28;20196;-84
2022/08/12 10:05:56;;;;;;;4.32;2.55;;;;;;;32.60;29.48;102171.94;4973197;28;20176;-82
2022/08/12 10:08:26;;;;;;;2.78;2.05;;;;;;;32.97;28.34;102172.63;4973210;28;20192;-80
2022/08/12 10:13:40;;;;;;;1.95;1.70;;;;;;;32.73;28.45;102171.22;4918031;28;20236;-83
2022/08/12 10:16:42;;;;;;;2.20;2.00;;;;;;;32.93;28.58;102162.25;4963816;28;20223;-82
2022/08/12 10:19:08;;;;;;;3.50;1.83;;;;;;;32.21;29.03;102158.81;4962260;28;20295;-81
2022/08/12 10:21:36;;;;;;;3.00;2.10;;;;;;;32.24;28.53;102163.13;4970468;28;20188;-83
2022/08/12 10:24:06;;;;;;;3.17;2.10;;;;;;;32.02;27.79;102152.72;4970354;28;20216;-84
2022/08/12 10:32:02;;;;;;;4.90;2.17;;;;;;;32.89;28.33;102134.16;4969818;28;20200;-84
2022/08/12 10:34:28;;;;;;;2.67;1.77;;;;;;;33.26;27.55;102136.56;4968993;28;20192;-81
2022/08/12 10:36:58;;;;;;;5.55;1.95;;;;;;;32.93;26.71;102133.91;4987454;28;20280;-84
2022/08/12 10:39:34;;;;;;;2.60;2.00;;;;;;;32.56;27.19;102130.56;4971009;28;20192;-83
2022/08/12 10:44:50;;;;;;;2.72;2.17;;;;;;;32.50;27.15;102122.91;4986251;28;20197;-82
2022/08/12 10:47:18;;;;;;;2.85;2.05;;;;;;;32.31;27.60;102120.31;4951507;28;20219;-81
2022/08/12 10:49:45;;;;;;;2.67;1.90;;;;;;;32.77;27.61;102117.03;4985232;28;20204;-80
2022/08/12 10:52:11;;;;;;;3.25;1.98;;;;;;;33.33;27.72;102104.28;4970072;28;20188;-82
2022/08/12 10:54:38;;;;;;;5.90;2.00;;;;;;;33.73;26.93;102111.75;4987114;28;20184;-79
2022/08/12 10:57:04;;;;;;;3.22;2.03;;;;;;;33.55;25.74;102102.16;4987264;28;20673;-82
2022/08/12 10:59:30;;;;;;;2.78;1.88;;;;;;;33.62;26.98;102103.53;4977934;28;20243;-80
2022/08/12 11:01:57;;;;;;;3.90;2.00;;;;;;;33.72;27.03;102093.22;4992482;28;20185;-83
2022/08/12 11:04:24;;;;;;;3.38;2.05;;;;;;;33.94;25.31;102099.91;4985410;28;20227;-80
2022/08/12 11:06:50;;;;;;;4.97;2.13;;;;;;;33.04;25.37;102106.75;4984761;28;20275;-80
2022/08/12 11:09:16;;;;;;;2.70;2.00;;;;;;;33.52;26.64;102093.50;4982347;28;20581;-83
2022/08/12 11:11:43;;;;;;;2.35;1.88;;;;;;;33.70;25.55;102089.81;4982542;28;20260;-80
2022/08/12 11:14:09;;;;;;;6.93;3.78;;;;;;;34.01;25.77;102093.31;4982131;28;20184;-80
2022/08/12 11:16:34;;;;;;;4.07;2.22;;;;;;;33.80;24.97;102097.19;4982716;28;20188;-83
2022/08/12 11:19:00;;;;;;;4.88;1.92;;;;;;;34.07;25.57;102090.28;4982478;28;20226;-82
2022/08/12 11:21:25;;;;;;;3.08;2.17;;;;;;;33.82;25.62;102086.47;4981862;28;20275;-82
2022/08/12 11:23:50;;;;;;;2.90;1.98;;;;;;;33.99;26.55;102095.22;4980690;28;20213;-79
2022/08/12 11:26:16;;;;;;;3.25;2.42;;;;;;;33.99;26.28;102081.03;4981891;28;20184;-83
2022/08/12 11:28:42;;;;;;;7.18;2.17;;;;;;;33.85;26.48;102083.66;4980160;28;20639;-82
2022/08/12 11:31:08;;;;;;;3.55;2.30;;;;;;;34.02;26.34;102078.22;4976942;28;20596;-82
2022/08/12 11:33:34;;;;;;;3.20;2.10;;;;;;;34.08;26.28;102083.16;4977915;28;20216;-82
2022/08/12 11:36:06;;;;;;;4.97;2.20;;;;;;;34.11;26.25;102078.53;4984248;28;20193;-81
2022/08/12 11:38:33;;;;;;;4.13;2.10;;;;;;;34.11;25.97;102077.69;4983101;28;20211;-80
2022/08/12 11:40:59;;;;;;;2.95;2.10;;;;;;;33.62;25.18;102076.09;4979819;28;20295;-82
2022/08/12 11:43:25;;;;;;;3.05;2.05;;;;;;;33.73;26.98;102071.88;4984236;28;20185;-82
2022/08/12 11:45:50;;;;;;;2.88;1.90;;;;;;;33.83;25.41;102075.75;4971018;28;20220;-80
2022/08/12 11:48:15;;;;;;;3.22;2.00;;;;;;;34.01;26.33;102077.34;4981451;28;20629;-77
2022/08/12 11:50:44;;;;;;;2.55;1.95;;;;;;;34.17;26.00;102067.50;4986269;28;20212;-82
2022/08/12 11:53:09;;;;;;;5.68;2.35;;;;;;;33.92;25.29;102075.22;4982439;28;20187;-83
2022/08/12 11:55:35;;;;;;;5.35;2.38;;;;;;;33.79;25.64;102084.81;4984868;28;20185;-79
2022/08/12 11:58:00;;;;;;;2.97;2.38;;;;;;;33.36;25.91;102066.91;4985434;28;20191;-81
2022/08/12 12:00:26;;;;;;;3.92;2.05;;;;;;;33.74;26.95;102060.28;4999678;28;20246;-79
2022/08/12 12:02:51;;;;;;;3.17;2.13;;;;;;;33.88;27.11;102063.03;4998689;28;20192;-82
2022/08/12 12:05:18;;;;;;;2.70;2.22;;;;;;;32.63;26.52;102071.75;4981721;28;20212;-79
2022/08/12 12:07:45;;;;;;;2.47;2.00;;;;;;;32.63;26.91;102058.50;4978360;28;20188;-83
2022/08/12 12:10:13;;;;;;;3.30;2.17;;;;;;;33.02;26.96;102060.84;4984628;28;20224;-81
2022/08/12 12:12:40;;;;;;;7.78;2.20;;;;;;;33.47;26.39;102053.03;4983059;28;20204;-80
2022/08/12 12:15:06;;;;;;;6.78;2.40;;;;;;;33.08;27.22;102061.38;4966875;28;20182;-81
2022/08/12 12:17:35;;;;;;;2.95;2.40;;;;;;;33.04;27.50;102053.66;4999301;28;20530;-79
2022/08/12 12:20:03;;;;;;;3.08;2.00;;;;;;;32.90;25.82;102050.88;4984703;28;20295;-85
2022/08/12 12:22:28;;;;;;;4.35;2.40;;;;;;;33.26;26.32;102049.75;4983264;28;20195;-81
2022/08/12 12:24:54;;;;;;;2.80;1.95;;;;;;;33.27;26.61;102054.09;4999561;28;20227;-82
2022/08/12 12:27:20;;;;;;;2.20;2.00;;;;;;;33.17;26.80;102046.72;5005351;28;20184;-82
2022/08/12 12:29:46;;;;;;;4.85;2.47;;;;;;;33.40;26.69;102051.66;4991374;28;20208;-85
2022/08/12 12:32:11;;;;;;;4.93;2.33;;;;;;;32.93;26.57;102056.03;5005784;28;20287;-81
2022/08/12 12:34:37;;;;;;;2.72;2.08;;;;;;;33.03;26.49;102046.63;4987903;28;20900;-81
2022/08/12 12:37:03;;;;;;;3.83;2.13;;;;;;;33.34;26.64;102060.81;5003101;28;20490;-80
2022/08/12 12:39:28;;;;;;;5.18;2.17;;;;;;;33.48;25.60;102044.97;4971237;28;20239;-80
2022/08/12 12:42:12;;;;;;;3.65;1.95;;;;;;;33.69;26.06;102042.88;4989409;28;20600;-81
2022/08/12 12:44:56;;;;;;;4.88;1.73;;;;;;;33.80;26.16;102041.34;4989462;28;20599;-80
2022/08/12 12:47:22;;;;;;;4.85;2.20;;;;;;;33.50;25.14;102029.78;5004441;28;20192;-82
2022/08/12 12:49:48;;;;;;;5.53;2.00;;;;;;;33.17;24.99;102036.09;4977116;28;20216;-82
2022/08/12 12:52:13;;;;;;;3.25;1.77;;;;;;;33.42;25.13;102028.53;5006679;28;20188;-82
2022/08/12 12:54:51;;;;;;;8.13;2.17;;;;;;;33.43;25.42;102028.41;4990624;28;20191;-79
2022/08/12 12:57:16;;;;;;;5.50;2.15;;;;;;;32.98;23.94;102030.94;5003965;28;20187;-80
2022/08/12 13:00:13;;;;;;;4.95;2.05;;;;;;;33.39;25.75;102026.91;4990354;28;20212;-78
2022/08/12 13:02:30;;;;;;;3.92;2.05;;;;;;;33.42;24.29;102029.34;4972265;28;20227;-82
2022/08/12 13:04:56;;;;;;;2.15;1.70;;;;;;;33.65;25.17;102012.94;4992711;28;20216;-81
2022/08/12 13:07:22;;;;;;;2.33;1.67;;;;;;;33.75;24.11;102015.94;5005581;28;20208;-81
2022/08/12 13:09:47;;;;;;;10.60;2.88;;;;;;;32.99;24.06;102015.84;4990322;28;20654;-82
2022/08/12 13:12:13;;;;;;;6.63;1.90;;;;;;;33.31;24.01;102018.50;5008436;28;20199;-81
2022/08/12 13:14:38;;;;;;;5.05;2.15;;;;;;;33.42;23.25;102024.03;4992602;28;20196;-80
2022/08/12 13:17:04;;;;;;;6.93;2.00;;;;;;;33.33;23.30;102015.75;4990254;28;20196;-82
2022/08/12 13:19:30;;;;;;;4.20;1.75;;;;;;;33.39;22.54;102013.59;5004047;28;20227;-79
2022/08/12 13:24:39;;;;;;;2.72;1.83;;;;;;;33.62;23.38;102009.63;5004818;28;20288;-81
2022/08/12 13:27:05;;;;;;;3.53;1.85;;;;;;;33.63;22.46;102022.84;5001026;28;20184;-80
2022/08/12 13:29:32;;;;;;;5.57;1.70;;;;;;;33.51;22.50;102028.00;5001028;28;20718;-81